Latest Weather Observations for Macquarie Island

IDT60801

Issued at 3:35 pm EST Thursday 17 April 2014 (issued every 30 minutes, with the page automatically refreshed every 10 minutes)

About weather observations | Map of weather stations | Latest weather observations for TAS | Other Formats
Station Details ID: 300004 Name: MACQUARIE ISLAND Lat: -54.50 Lon: 158.94 Height: 6.0 m
Data from the previous 72 hours. | See also: Recent months at Macquarie Island
Date/Time
EST
Temp
°C
App
Temp
°C
Dew
Point
Rel
Hum
%
Delta-T
°C
Wind Press
QNH
hPa
Press
MSL
hPa
Rain
since 9 am
mm
Dir
 
Spd
km/h
Gust
km/h
Spd
kts
Gust
kts
17/03:30pm 7.6 -0.9 5.1 84 1.1 NNW 39 46 21 25 1023.6 - 0.0
17/03:00pm 7.8 -1.7 4.7 81 1.4 NNW 44 56 24 30 1023.7 1024.0 0.0
17/02:30pm 7.8 -1.5 4.9 82 1.3 NNW 43 50 23 27 1023.8 - 0.0
17/02:00pm 7.8 -1.7 4.9 82 1.3 NNW 44 54 24 29 1024.1 - 0.0
17/01:30pm 7.8 -1.5 4.9 82 1.3 NNW 43 50 23 27 1024.1 - 0.0
17/01:00pm 7.9 -1.4 5.0 82 1.3 NNW 43 50 23 27 1024.0 - 0.0
17/12:30pm 7.9 -1.4 5.0 82 1.3 NNW 43 57 23 31 1024.0 - 0.0
17/12:00pm 7.8 -1.7 4.7 81 1.4 NNW 44 54 24 29 1024.2 1024.5 0.0
17/11:30am 7.8 -1.1 4.9 82 1.3 NNW 41 50 22 27 1024.4 - 0.0
17/11:00am 7.8 -1.7 4.9 82 1.3 NNW 44 50 24 27 1024.4 - 0.0
17/10:30am 7.7 -1.3 4.8 82 1.3 NNW 41 50 22 27 1024.6 - 0.0
17/10:00am 7.7 -1.7 4.7 81 1.3 NNW 43 48 23 26 1024.8 - 0.0
17/09:30am 7.6 -1.3 4.9 83 1.2 NNW 41 46 22 25 1024.8 - 0.0
17/09:00am 7.6 -1.9 4.7 82 1.3 NNW 44 57 24 31 1025.0 1025.3 0.0
17/08:30am 7.5 -1.9 4.6 82 1.3 NNW 43 50 23 27 1025.0 - -
17/08:00am 7.4 -2.0 4.5 82 1.3 NNW 43 50 23 27 1024.9 - -
17/07:30am 7.3 -2.1 4.6 83 1.2 NNW 43 54 23 29 1025.0 - -
17/07:00am 7.3 -1.7 4.6 83 1.2 NNW 41 46 22 25 1025.0 - -
17/06:30am 7.3 -2.1 4.4 82 1.3 NNW 43 50 23 27 1024.9 - -
17/06:00am 7.2 -1.8 4.5 83 1.2 NNW 41 48 22 26 1024.8 1025.1 -
17/05:30am 7.3 -2.3 4.3 81 1.3 NNW 44 56 24 30 1024.7 - -
17/05:00am 7.1 -2.4 4.1 81 1.3 NNW 43 50 23 27 1024.8 - -
17/04:30am 7.2 -2.4 4.2 81 1.3 NNW 44 56 24 30 1025.1 - -
17/04:00am 7.2 -2.4 4.2 81 1.3 NNW 44 57 24 31 1025.1 - -
17/03:30am 7.1 -2.4 4.1 81 1.3 NNW 43 52 23 28 1025.2 - -
17/03:00am 7.1 -2.4 4.1 81 1.3 NNW 43 52 23 28 1025.1 1025.4 0.0
17/02:30am 7.1 -1.5 4.4 83 1.2 NNW 39 46 21 25 1025.3 - -
17/02:00am 7.3 -2.1 4.4 82 1.3 NNW 43 54 23 29 1025.4 - -
17/01:30am 7.1 -0.7 5.1 87 0.9 NNW 35 44 19 24 1025.4 - -
17/01:00am 7.0 -1.5 5.2 88 0.8 NNW 39 46 21 25 1025.4 - -
17/12:30am 6.9 -1.6 5.1 88 0.8 NNW 39 44 21 24 1025.6 - -
17/12:00am 6.9 -1.6 5.1 88 0.8 NNW 39 43 21 23 1025.5 1025.8 -
 
Date/Time
EST
Temp
°C
App
Temp
°C
Dew
Point
Rel
Hum
%
Delta-T
°C
Wind Press
QNH
hPa
Press
MSL
hPa
Rain
since 9 am
mm
Dir
 
Spd
km/h
Gust
km/h
Spd
kts
Gust
kts
16/11:30pm 6.8 -1.3 5.3 90 0.7 NNW 37 43 20 23 1025.5 - -
16/11:00pm 6.6 -1.2 5.1 90 0.7 NNW 35 43 19 23 1025.6 - -
16/10:30pm 6.7 -1.0 5.2 90 0.7 NNW 35 39 19 21 1025.8 - -
16/10:00pm 6.6 -0.3 4.8 88 0.8 NNW 30 33 16 18 1026.0 - -
16/09:30pm 6.6 -0.7 4.6 87 0.9 NNW 32 33 17 18 1026.1 - -
16/09:00pm 6.5 -0.8 4.5 87 0.9 NNW 32 37 17 20 1026.0 1026.3 0.0
16/08:30pm 6.6 -1.3 4.3 85 1.0 NNW 35 39 19 21 1025.9 - -
16/08:00pm 6.6 -0.8 4.1 84 1.1 NNW 32 37 17 20 1025.8 - -
16/07:30pm 6.6 -1.5 3.4 80 1.3 NNW 35 41 19 22 1025.8 - -
16/07:00pm 6.6 -1.0 3.9 83 1.2 NNW 33 39 18 21 1025.9 - -
16/06:30pm 6.4 -1.3 3.6 82 1.2 NNW 33 39 18 21 1025.8 - -
16/06:00pm 6.5 -1.5 3.7 82 1.2 NNW 35 39 19 21 1025.7 1026.0 -
16/05:30pm 6.4 -1.7 3.4 81 1.3 NNW 35 41 19 22 1025.9 - -
16/05:00pm 6.4 -1.7 3.0 79 1.4 NNW 35 41 19 22 1026.0 - -
16/04:30pm 6.3 -0.9 2.9 79 1.4 NNW 30 35 16 19 1026.0 - -
16/04:00pm 6.4 -1.3 2.5 76 1.6 NNW 32 37 17 20 1026.0 - -
16/03:30pm 6.6 -0.7 2.7 76 1.6 NW 30 37 16 20 1026.0 - -
16/03:00pm 6.5 -0.8 2.2 74 1.7 NW 30 37 16 20 1026.0 1026.3 0.0
16/02:30pm 6.8 -0.1 2.3 73 1.8 NW 28 35 15 19 1026.0 - -
16/02:00pm 7.0 0.4 2.3 72 1.9 NW 26 35 14 19 1025.8 - -
16/01:30pm 7.4 0.9 2.9 73 1.9 NNW 26 32 14 17 1025.9 - -
16/01:00pm - - - - - - - - - - - - -
16/12:30pm - - - - - - - - - - - - 0.0
16/12:00pm 6.8 0.0 0.9 66 2.3 NW 26 30 14 16 1025.8 1026.1 0.0
16/11:30am 7.4 0.9 2.5 71 2.0 NW 26 33 14 18 1025.9 - 0.0
16/11:00am 7.4 1.2 2.3 70 2.1 NW 24 30 13 16 1026.0 - 0.0
16/10:30am 7.5 0.8 1.4 65 2.5 NW 26 30 14 16 1026.1 - 0.0
16/10:00am 7.2 1.8 2.3 71 2.0 WNW 20 24 11 13 1026.2 - 0.0
16/09:30am 6.8 1.4 1.5 69 2.1 WNW 19 20 10 11 1026.3 - 0.0
16/09:00am 6.3 0.7 1.4 71 1.9 W 20 28 11 15 1026.1 1026.4 1.2
16/08:30am 5.6 0.2 1.0 72 1.8 W 19 20 10 11 1025.9 - 1.2
16/08:00am 5.7 0.7 1.2 73 1.8 W 17 20 9 11 1025.8 - 1.2
16/07:30am 5.0 -0.6 0.0 70 1.9 W 19 24 10 13 1025.6 - 1.2
16/07:00am 4.9 0.8 -0.1 70 1.9 WSW 11 15 6 8 1025.3 - 1.2
16/06:30am 4.9 0.1 0.1 71 1.8 W 15 20 8 11 1025.1 - 1.2
16/06:00am 4.7 0.7 0.5 74 1.6 W 11 15 6 8 1024.9 1025.2 1.2
16/05:30am 4.9 -0.6 0.7 74 1.6 W 19 32 10 17 1024.6 - 1.2
16/05:00am 4.7 0.4 -1.3 65 2.2 WSW 11 28 6 15 1024.3 - 1.2
16/04:30am 4.9 -0.4 -0.9 66 2.2 W 17 32 9 17 1024.1 - 1.2
16/04:00am 4.8 -1.1 -1.0 66 2.1 W 20 39 11 21 1024.0 - 1.2
16/03:30am 4.6 0.9 -0.2 71 1.8 SW 9 20 5 11 1023.8 - 1.2
16/03:00am 4.5 -0.4 -0.3 71 1.8 W 15 26 8 14 1023.6 1023.9 1.2
16/02:30am 4.6 -1.2 -0.2 71 1.8 W 20 33 11 18 1023.3 - 1.2
16/02:00am 4.4 -0.9 -0.8 69 1.9 SW 17 28 9 15 1023.4 - 1.2
16/01:30am 4.1 -0.5 -1.3 68 2.0 SW 13 24 7 13 1023.2 - 1.2
16/01:00am 4.3 -1.1 -1.1 68 2.0 WSW 17 32 9 17 1023.1 - 1.2
16/12:30am 4.4 -1.5 -0.8 69 1.9 W 20 30 11 16 1022.8 - 1.2
16/12:00am 4.6 -3.1 0.0 72 1.7 W 30 59 16 32 1022.4 1022.7 1.2
 
Date/Time
EST
Temp
°C
App
Temp
°C
Dew
Point
Rel
Hum
%
Delta-T
°C
Wind Press
QNH
hPa
Press
MSL
hPa
Rain
since 9 am
mm
Dir
 
Spd
km/h
Gust
km/h
Spd
kts
Gust
kts
15/11:57pm 4.6 -2.7 0.2 73 1.7 W 28 59 15 32 1022.4 - 1.2
15/11:30pm 4.5 -1.2 0.5 75 1.5 WSW 20 37 11 20 1022.2 - 1.2
15/11:00pm 4.5 -1.2 0.6 76 1.5 WSW 20 39 11 21 1021.9 - 1.2
15/10:30pm 4.2 -1.5 0.5 77 1.4 WSW 20 33 11 18 1021.6 - 1.2
15/10:00pm 4.5 -2.8 0.1 73 1.7 WSW 28 41 15 22 1021.3 - 1.2
15/09:30pm 4.8 -2.5 -0.2 70 1.9 W 28 48 15 26 1020.8 - 1.2
15/09:12pm 4.8 -2.6 -0.4 69 2.0 WSW 28 52 15 28 1021.0 - 1.2
15/09:00pm 4.7 -0.6 1.6 80 1.2 SW 19 28 10 15 1020.8 1021.1 1.2
15/08:30pm 3.9 -3.2 1.1 82 1.1 SW 28 59 15 32 1020.6 - 1.2
15/08:22pm 4.6 -3.2 1.8 82 1.1 SW 32 59 17 32 1020.5 - 0.8
15/08:00pm 5.0 -1.3 1.5 78 1.4 W 24 41 13 22 1020.0 - 0.8
15/07:30pm 4.4 -1.1 0.6 76 1.5 SW 19 28 10 15 1019.7 - 0.8
15/07:00pm 5.0 -1.4 0.8 74 1.6 W 24 43 13 23 1019.1 - 0.8
15/06:30pm 4.7 -1.0 0.7 75 1.5 W 20 33 11 18 1018.6 - 0.8
15/06:00pm 4.4 -0.3 0.6 76 1.5 WSW 15 24 8 13 1018.3 1018.6 0.8
15/05:30pm 4.7 -3.3 0.3 73 1.7 WSW 32 50 17 27 1017.9 - 0.8
15/05:00pm 5.4 -2.5 1.3 75 1.6 W 32 56 17 30 1017.1 - 0.8
15/04:30pm 5.6 -3.4 0.4 69 2.0 W 37 56 20 30 1016.8 - 0.8
15/04:00pm 5.5 -3.1 0.5 70 1.9 W 35 56 19 30 1016.1 - 0.8
15/03:30pm 5.7 -3.6 0.7 70 1.9 W 39 61 21 33 1015.8 - 0.8
15/03:00pm 5.8 -1.9 2.1 77 1.5 W 32 57 17 31 1015.2 1015.5 0.8
15/02:30pm 6.0 -1.8 1.7 74 1.7 W 32 54 17 29 1014.9 - 0.8
15/02:00pm 6.2 -3.8 1.1 70 2.0 W 43 61 23 33 1014.5 - 0.8
15/01:32pm 6.4 -3.7 1.5 71 2.0 W 44 63 24 34 1014.2 - 0.8
15/01:30pm 6.3 -4.3 0.8 68 2.2 W 46 63 25 34 1014.1 - 0.8
15/01:10pm 6.1 -4.9 0.9 69 2.0 W 48 67 26 36 1014.0 - 0.8
15/01:00pm 6.9 -3.9 2.2 72 1.9 W 48 63 26 34 1013.9 - 0.8
15/12:30pm 7.0 -3.7 2.5 73 1.9 W 48 63 26 34 1013.3 - 0.8
15/12:10pm 6.7 -2.6 2.8 76 1.6 W 41 59 22 32 1013.0 - 0.8
15/12:00pm 7.0 -1.4 3.6 79 1.4 W 37 46 20 25 1012.9 1013.2 0.8
15/11:30am 6.3 -1.3 3.8 84 1.1 W 33 50 18 27 1012.9 - 0.8
15/11:00am 5.4 -2.6 3.6 88 0.8 W 35 54 19 29 1012.8 - 0.8
15/10:33am 4.3 -6.8 2.3 87 0.8 WSW 50 69 27 37 1012.8 - 0.6
15/10:30am 4.2 -7.8 1.7 84 1.0 WSW 54 69 29 37 1012.7 - 0.4
15/10:26am 5.0 -7.5 1.8 80 1.3 W 57 69 31 37 1012.7 - 0.2
15/10:24am 6.9 -2.8 3.9 81 1.3 WNW 44 63 24 34 1011.9 - 0.0
15/10:00am 8.1 -0.1 5.0 81 1.4 WNW 37 46 20 25 1011.9 - 0.0
15/09:30am 7.6 -0.7 4.2 79 1.5 WNW 37 46 20 25 1011.8 - 0.0
15/09:00am 7.0 -0.5 4.5 84 1.1 WNW 33 41 18 22 1012.0 1012.3 0.4
15/08:30am 6.2 -0.8 3.9 85 1.0 W 30 41 16 22 1011.9 - 0.4
15/08:00am 6.8 -0.1 4.5 85 1.0 WNW 30 35 16 19 1011.9 - 0.4
15/07:50am 6.4 -0.2 4.2 86 0.9 WNW 28 30 15 16 1011.9 - 0.4
15/07:30am 6.0 -2.5 3.3 83 1.1 W 37 44 20 24 1011.9 - 0.4
15/07:18am 6.1 -1.9 3.6 84 1.1 W 35 44 19 24 1011.9 - 0.4
15/07:00am 6.5 -2.1 4.7 88 0.8 WNW 39 46 21 25 1011.6 - 0.4
15/06:30am 6.4 -2.2 4.7 89 0.7 WNW 39 46 21 25 1011.4 - 0.4
15/06:00am 6.4 -2.2 4.7 89 0.7 WNW 39 46 21 25 1011.3 1011.6 0.4
15/05:30am 6.5 -2.1 4.7 88 0.8 NW 39 50 21 27 1011.1 - 0.4
15/05:00am 6.7 -1.8 5.3 91 0.6 NW 39 44 21 24 1011.1 - 0.4
15/04:30am 6.3 -1.1 4.9 91 0.6 WNW 33 44 18 24 1011.4 - 0.4
15/04:00am 6.4 -1.0 5.2 92 0.5 W 33 46 18 25 1011.7 - 0.4
15/03:30am 6.8 -1.6 5.4 91 0.6 WNW 39 46 21 25 1011.4 - 0.2
15/03:00am 6.7 -2.2 5.3 91 0.6 WNW 41 50 22 27 1011.3 1011.6 0.2
15/02:30am 6.7 -2.2 5.3 91 0.6 WNW 41 50 22 27 1011.3 - 0.2
15/02:00am 6.8 -2.0 5.6 92 0.5 WNW 41 50 22 27 1011.5 - 0.2
15/01:30am 6.7 -2.4 5.7 93 0.4 NW 43 54 23 29 1011.4 - 0.2
15/01:00am 7.1 -2.2 5.9 92 0.5 NW 44 52 24 28 1011.5 - 0.2
15/12:30am 7.0 -2.7 5.8 92 0.5 NW 46 56 25 30 1011.4 - 0.2
15/12:00am 6.9 -2.2 5.8 93 0.5 NW 43 50 23 27 1011.6 1011.9 0.2
 
Date/Time
EST
Temp
°C
App
Temp
°C
Dew
Point
Rel
Hum
%
Delta-T
°C
Wind Press
QNH
hPa
Press
MSL
hPa
Rain
since 9 am
mm
Dir
 
Spd
km/h
Gust
km/h
Spd
kts
Gust
kts
14/11:30pm 6.9 -2.4 5.8 93 0.5 NW 44 50 24 27 1011.5 - 0.2
14/11:00pm 7.0 -2.3 5.8 92 0.5 NW 44 54 24 29 1011.6 - 0.2
14/10:30pm 7.0 -2.1 6.1 94 0.4 NW 43 52 23 28 1011.6 - 0.2
14/10:00pm 7.2 -2.4 6.1 93 0.5 WNW 46 54 25 29 1011.6 - 0.2
14/09:30pm 7.2 -3.2 6.0 92 0.5 WNW 50 61 27 33 1011.5 - 0.2
14/09:00pm 7.3 -1.9 6.2 93 0.5 NW 44 52 24 28 1011.4 1011.7 0.2
14/08:30pm 7.3 -2.7 6.2 93 0.5 NW 48 57 26 31 1011.3 - 0.2
14/08:00pm 7.4 -1.8 6.3 93 0.5 NW 44 52 24 28 1011.2 - 0.2
14/07:30pm 7.4 -1.6 6.2 92 0.5 NW 43 50 23 27 1011.1 - 0.2
14/07:00pm 7.3 -2.3 6.4 94 0.4 NW 46 57 25 31 1010.9 - 0.2
14/06:30pm 7.4 -2.9 6.5 94 0.4 NW 50 59 27 32 1010.7 - 0.0
14/06:00pm 7.4 -2.5 6.5 94 0.4 NW 48 59 26 32 1010.6 1010.9 0.0
14/05:30pm 7.5 -2.8 6.6 94 0.4 NW 50 65 27 35 1010.4 - 0.0
14/05:22pm 7.6 -1.9 6.7 94 0.4 NW 46 65 25 35 1010.4 - 0.0
14/05:00pm 7.5 -2.0 6.6 94 0.4 NW 46 61 25 33 1010.3 - 0.0
14/04:30pm 7.6 -2.3 6.5 93 0.5 NW 48 61 26 33 1010.0 - 0.0
14/04:00pm 7.4 -2.1 6.5 94 0.4 NW 46 59 25 32 1010.0 - 0.0

Other Formats:

Comma delimited format used in spreadsheet applications
http://www.bom.gov.au/fwo/IDT60801/IDT60801.94998.axf

JavaScript Object Notation format (JSON) in row-major order
http://www.bom.gov.au/fwo/IDT60801/IDT60801.94998.json